Time;durP1;ratioP1;P1;durP2;ratioP2;P2;SDS_P1;SDS_P2;PMS_P1;PMS_P2;Temp;Humidity;BMP_temperature;BMP_pressure;BME280_temperature;BME280_humidity;BME280_pressure;Samples;Min_cycle;Max_cycle;Signal;HPM_P1;HPM_P2
2023/08/13 00:02:06;;;;;;;11.63;2.90;;;17.30;99.90;;;;;;5075862;28;20078;-70
2023/08/13 00:04:32;;;;;;;12.70;2.78;;;17.30;99.90;;;;;;5066894;28;20100;-71
2023/08/13 00:06:58;;;;;;;6.30;2.35;;;17.30;99.90;;;;;;5061825;28;20051;-72
2023/08/13 00:09:24;;;;;;;9.80;2.85;;;17.30;99.90;;;;;;5055785;28;20049;-71
2023/08/13 00:11:50;;;;;;;9.57;2.78;;;17.30;99.90;;;;;;5055914;28;20116;-71
2023/08/13 00:14:16;;;;;;;13.23;2.40;;;17.30;99.90;;;;;;5056437;28;20969;-71
2023/08/13 00:16:41;;;;;;;7.10;2.47;;;17.30;99.90;;;;;;5054925;28;20045;-71
2023/08/13 00:19:07;;;;;;;10.48;2.78;;;17.40;99.90;;;;;;5056562;28;20053;-71
2023/08/13 00:21:33;;;;;;;10.02;2.40;;;17.40;99.90;;;;;;5054307;28;20049;-71
2023/08/13 00:23:59;;;;;;;12.68;2.67;;;17.40;99.90;;;;;;5055916;28;20053;-71
2023/08/13 00:26:24;;;;;;;7.72;2.58;;;17.40;99.90;;;;;;5053692;28;20052;-71
2023/08/13 00:28:50;;;;;;;11.02;2.75;;;17.40;99.90;;;;;;5057132;28;20051;-72
2023/08/13 00:31:16;;;;;;;14.40;3.00;;;17.40;99.90;;;;;;5054654;28;20045;-71
2023/08/13 00:33:42;;;;;;;12.13;3.38;;;17.40;99.90;;;;;;5054987;28;20057;-73
2023/08/13 00:36:08;;;;;;;13.00;2.88;;;17.40;99.90;;;;;;5038712;28;20048;-72
2023/08/13 00:38:34;;;;;;;15.07;3.20;;;17.40;99.90;;;;;;5055835;28;20109;-71
2023/08/13 00:41:00;;;;;;;8.90;3.05;;;17.40;99.90;;;;;;5055761;28;20056;-72
2023/08/13 00:43:25;;;;;;;7.85;2.38;;;17.40;99.90;;;;;;5053984;28;20060;-72
2023/08/13 00:45:51;;;;;;;15.18;3.30;;;17.40;99.90;;;;;;5057257;28;20041;-72
2023/08/13 00:48:17;;;;;;;7.28;2.67;;;17.40;99.90;;;;;;5055736;28;20048;-70
2023/08/13 00:50:45;;;;;;;10.32;2.90;;;17.40;99.90;;;;;;5054503;28;20068;-72
2023/08/13 00:53:12;;;;;;;10.48;2.80;;;17.40;99.90;;;;;;5054975;28;20412;-71
2023/08/13 00:55:38;;;;;;;11.30;2.90;;;17.40;99.90;;;;;;5040505;28;20596;-72
2023/08/13 00:58:04;;;;;;;9.43;3.13;;;17.40;99.90;;;;;;5060904;28;20045;-71
2023/08/13 01:00:33;;;;;;;14.40;3.15;;;17.40;99.90;;;;;;5057751;28;20099;-72
2023/08/13 01:02:58;;;;;;;18.30;3.53;;;17.40;99.90;;;;;;5059475;28;20049;-72
2023/08/13 01:05:39;;;;;;;12.02;2.97;;;17.40;99.90;;;;;;5041429;28;20075;-72
2023/08/13 01:08:13;;;;;;;9.13;2.65;;;17.50;99.90;;;;;;5059747;28;20658;-71
2023/08/13 01:10:43;;;;;;;8.45;2.83;;;17.50;99.90;;;;;;5059042;28;20055;-72
2023/08/13 01:13:21;;;;;;;9.50;2.70;;;17.50;99.90;;;;;;5058787;28;20052;-72
2023/08/13 01:15:50;;;;;;;11.25;2.42;;;17.50;99.90;;;;;;5059492;28;20073;-71
2023/08/13 01:18:16;;;;;;;11.20;3.03;;;17.50;99.90;;;;;;5058819;28;20045;-71
2023/08/13 01:20:43;;;;;;;6.20;2.58;;;17.50;99.90;;;;;;5058732;28;20045;-72
2023/08/13 01:23:09;;;;;;;14.00;3.10;;;17.50;99.90;;;;;;5059873;28;20076;-72
2023/08/13 01:25:36;;;;;;;12.35;2.97;;;17.50;99.90;;;;;;5058977;28;20045;-72
2023/08/13 01:28:31;;;;;;;14.38;3.00;;;17.50;99.90;;;;;;5042968;28;20041;-71
2023/08/13 01:31:21;;;;;;;17.10;3.25;;;17.50;99.90;;;;;;5051151;28;20056;-71
2023/08/13 01:33:48;;;;;;;12.02;2.70;;;17.50;99.90;;;;;;5059860;28;20056;-70
2023/08/13 01:36:16;;;;;;;9.25;2.85;;;17.40;99.90;;;;;;5060211;28;20072;-71
2023/08/13 01:38:44;;;;;;;9.68;2.67;;;17.40;99.90;;;;;;5057547;28;20067;-71
2023/08/13 01:41:10;;;;;;;9.65;3.17;;;17.40;99.90;;;;;;5060843;28;20037;-72
2023/08/13 01:43:36;;;;;;;11.25;3.17;;;17.30;99.90;;;;;;5058748;28;20071;-72
2023/08/13 01:46:02;;;;;;;10.93;2.95;;;17.30;99.90;;;;;;5062620;28;20033;-71
2023/08/13 01:48:28;;;;;;;10.32;2.90;;;17.30;99.90;;;;;;5077726;28;20499;-72
2023/08/13 01:50:54;;;;;;;9.15;2.50;;;17.30;99.90;;;;;;5061122;28;20056;-71
2023/08/13 01:53:20;;;;;;;12.98;2.75;;;17.30;99.90;;;;;;5079806;28;20178;-71
2023/08/13 01:55:45;;;;;;;10.20;3.35;;;17.30;99.90;;;;;;5078503;28;20048;-71
2023/08/13 01:58:11;;;;;;;19.88;3.97;;;17.30;99.90;;;;;;5080440;28;20044;-71
2023/08/13 02:00:37;;;;;;;14.60;3.58;;;17.30;99.90;;;;;;5076786;28;20071;-72
2023/08/13 02:03:03;;;;;;;10.65;3.28;;;17.30;99.90;;;;;;5078796;28;20044;-71
2023/08/13 02:05:29;;;;;;;9.65;3.00;;;17.30;99.90;;;;;;5078656;28;20125;-72
2023/08/13 02:07:55;;;;;;;14.85;2.92;;;17.30;99.90;;;;;;5061337;28;20131;-71
2023/08/13 02:10:21;;;;;;;12.07;3.25;;;17.30;99.90;;;;;;5079221;28;20077;-71
2023/08/13 02:12:47;;;;;;;8.15;2.80;;;17.20;99.90;;;;;;5078425;28;20060;-72
2023/08/13 02:15:12;;;;;;;10.00;2.58;;;17.20;99.90;;;;;;5078573;28;20044;-71
2023/08/13 02:17:38;;;;;;;13.35;3.05;;;17.20;99.90;;;;;;5077822;28;20052;-71
2023/08/13 02:20:05;;;;;;;9.73;3.15;;;17.10;99.90;;;;;;5080017;28;20040;-72
2023/08/13 02:22:31;;;;;;;9.95;2.60;;;17.10;99.90;;;;;;5078327;28;20051;-71
2023/08/13 02:24:57;;;;;;;8.93;2.80;;;17.10;99.90;;;;;;5078772;28;20040;-71
2023/08/13 02:27:23;;;;;;;8.45;2.70;;;17.10;99.90;;;;;;5078981;28;20063;-70
2023/08/13 02:29:48;;;;;;;7.38;3.20;;;17.00;99.90;;;;;;5078191;28;20059;-71
2023/08/13 02:32:14;;;;;;;10.82;3.33;;;17.10;99.90;;;;;;5079406;28;20110;-70
2023/08/13 02:34:46;;;;;;;11.82;2.45;;;17.10;99.90;;;;;;5077416;28;20044;-71
2023/08/13 02:37:12;;;;;;;;;;;17.00;99.90;;;;;;5079761;28;20044;-71
2023/08/13 02:39:38;;;;;;;8.38;2.80;;;17.10;99.90;;;;;;5077767;28;19969;-71
2023/08/13 02:42:04;;;;;;;14.25;3.50;;;17.00;99.90;;;;;;5076947;28;20045;-71
2023/08/13 02:44:30;;;;;;;11.05;3.50;;;17.00;99.90;;;;;;5076758;28;20060;-71
2023/08/13 02:46:56;;;;;;;15.20;3.47;;;17.00;99.90;;;;;;5077750;28;20044;-71
2023/08/13 02:49:21;;;;;;;12.02;3.28;;;17.00;99.90;;;;;;5078692;28;20079;-70
2023/08/13 02:51:48;;;;;;;12.82;3.95;;;17.00;99.90;;;;;;5076932;28;20063;-71
2023/08/13 02:54:14;;;;;;;10.02;3.00;;;16.90;99.90;;;;;;5078691;28;20052;-71
2023/08/13 02:56:42;;;;;;;13.10;2.88;;;16.90;99.90;;;;;;5077172;28;20060;-71
2023/08/13 02:59:08;;;;;;;12.05;3.17;;;16.90;99.90;;;;;;5076444;28;20132;-72
2023/08/13 03:01:34;;;;;;;11.48;3.40;;;16.80;99.90;;;;;;5076273;28;20070;-72
2023/08/13 03:04:03;;;;;;;9.52;2.83;;;16.80;99.90;;;;;;5077349;28;20413;-71
2023/08/13 03:06:29;;;;;;;10.02;3.38;;;16.70;99.90;;;;;;5078142;28;20063;-72
2023/08/13 03:08:55;;;;;;;10.82;3.72;;;16.70;99.90;;;;;;5076413;28;20052;-71
2023/08/13 03:11:21;;;;;;;11.55;3.17;;;16.70;99.90;;;;;;5077113;28;20113;-71
2023/08/13 03:13:47;;;;;;;8.55;3.13;;;16.60;99.90;;;;;;5076336;28;20047;-72
2023/08/13 03:16:13;;;;;;;10.98;3.40;;;16.60;99.90;;;;;;5077761;28;20032;-71
2023/08/13 03:18:40;;;;;;;12.68;3.80;;;16.60;99.90;;;;;;5058433;28;20063;-72
2023/08/13 03:21:06;;;;;;;;;;;16.50;99.90;;;;;;5077459;28;20082;-72
2023/08/13 03:23:32;;;;;;;9.07;3.00;;;16.50;99.90;;;;;;5077749;28;20326;-71
2023/08/13 03:25:59;;;;;;;13.02;3.67;;;16.40;99.90;;;;;;5074490;28;20056;-73
2023/08/13 03:28:24;;;;;;;9.13;2.83;;;16.40;99.90;;;;;;5078164;28;20087;-72
2023/08/13 03:30:56;;;;;;;7.40;3.00;;;16.40;99.90;;;;;;5076235;28;20044;-72
2023/08/13 03:33:22;;;;;;;11.88;3.55;;;16.30;99.90;;;;;;5076024;28;20056;-72
2023/08/13 03:35:48;;;;;;;16.55;3.75;;;16.30;99.90;;;;;;5076878;28;20041;-71
2023/08/13 03:38:14;;;;;;;10.52;3.50;;;16.30;99.90;;;;;;5075564;28;20601;-72
2023/08/13 03:40:39;;;;;;;10.20;3.00;;;16.30;99.90;;;;;;5077584;28;20048;-72
2023/08/13 03:43:05;;;;;;;7.22;3.17;;;16.30;99.90;;;;;;5074472;28;20089;-72
2023/08/13 03:45:31;;;;;;;8.50;3.00;;;16.30;99.90;;;;;;5077885;28;20040;-72
2023/08/13 03:47:57;;;;;;;12.50;4.00;;;16.30;99.90;;;;;;5076046;28;20063;-72
2023/08/13 03:50:22;;;;;;;9.20;3.15;;;16.20;99.90;;;;;;5075761;28;20070;-71
2023/08/13 03:52:48;;;;;;;9.75;3.03;;;16.20;99.90;;;;;;5076663;28;20048;-71
2023/08/13 03:55:14;;;;;;;;;;;16.20;99.90;;;;;;5059219;28;20040;-72
2023/08/13 03:57:40;;;;;;;8.65;2.75;;;16.20;99.90;;;;;;5075543;28;19931;-71
2023/08/13 04:00:06;;;;;;;10.73;3.50;;;16.10;99.90;;;;;;5075561;28;20056;-72
2023/08/13 04:02:33;;;;;;;15.00;2.97;;;16.20;99.90;;;;;;5077738;28;20582;-71
2023/08/13 04:04:59;;;;;;;10.32;3.13;;;16.20;99.90;;;;;;5075736;28;20051;-73
2023/08/13 04:07:24;;;;;;;13.10;3.55;;;16.10;99.90;;;;;;5075837;28;20048;-73
2023/08/13 04:09:50;;;;;;;8.85;3.35;;;16.20;99.90;;;;;;5075286;28;20068;-72
2023/08/13 04:12:16;;;;;;;11.43;3.28;;;16.20;99.90;;;;;;5074914;28;20096;-73
2023/08/13 04:14:41;;;;;;;7.53;3.10;;;16.20;99.90;;;;;;5075578;28;20053;-73
2023/08/13 04:17:07;;;;;;;11.60;3.25;;;16.10;99.90;;;;;;5075880;28;20043;-73
2023/08/13 04:19:33;;;;;;;9.65;2.90;;;16.20;99.90;;;;;;5075798;28;20094;-73
2023/08/13 04:21:59;;;;;;;10.13;2.90;;;16.10;99.90;;;;;;5075426;28;20104;-73
2023/08/13 04:24:24;;;;;;;17.33;3.67;;;16.10;99.90;;;;;;5076113;28;20119;-73
2023/08/13 04:26:52;;;;;;;6.88;3.00;;;16.10;99.90;;;;;;5075393;28;20044;-73
2023/08/13 04:29:18;;;;;;;10.90;3.33;;;16.20;99.90;;;;;;5076978;28;20044;-73
2023/08/13 04:31:44;;;;;;;12.43;3.33;;;16.10;99.90;;;;;;5080794;28;20052;-72
2023/08/13 04:34:10;;;;;;;11.68;3.33;;;16.20;99.90;;;;;;5078774;28;20059;-74
2023/08/13 04:36:36;;;;;;;11.13;3.83;;;16.20;99.90;;;;;;5063613;28;20052;-72
2023/08/13 04:39:02;;;;;;;9.85;3.17;;;16.20;99.90;;;;;;5061599;28;20466;-72
2023/08/13 04:41:28;;;;;;;9.65;3.13;;;16.20;99.90;;;;;;5063405;28;20516;-73
2023/08/13 04:43:54;;;;;;;13.43;3.85;;;16.10;99.90;;;;;;5078731;28;20072;-73
2023/08/13 04:46:19;;;;;;;12.90;3.97;;;16.20;99.90;;;;;;5079705;28;20434;-72
2023/08/13 04:48:46;;;;;;;;;;;16.30;99.90;;;;;;5081114;28;20056;-74
2023/08/13 04:51:12;;;;;;;;;;;16.30;99.90;;;;;;5080542;28;19920;-73
2023/08/13 04:53:38;;;;;;;8.73;3.40;;;16.30;99.90;;;;;;5081370;28;19928;-72
2023/08/13 04:56:06;;;;;;;13.93;3.65;;;16.30;99.90;;;;;;5078038;28;20052;-72
2023/08/13 04:58:33;;;;;;;13.27;3.20;;;16.30;99.90;;;;;;5081608;28;20055;-73
2023/08/13 05:00:59;;;;;;;8.13;3.15;;;16.30;99.90;;;;;;5079857;28;20071;-73
2023/08/13 05:03:24;;;;;;;11.55;3.45;;;16.30;99.90;;;;;;5079237;28;20542;-73
2023/08/13 05:05:50;;;;;;;9.32;3.67;;;16.40;99.90;;;;;;5080424;28;20070;-72
2023/08/13 05:08:16;;;;;;;16.58;3.33;;;16.50;99.90;;;;;;5078422;28;20041;-73
2023/08/13 05:10:42;;;;;;;9.98;3.35;;;16.50;99.90;;;;;;5080915;28;20115;-73
2023/08/13 05:13:08;;;;;;;12.45;3.45;;;16.60;99.90;;;;;;5078117;28;20087;-73
2023/08/13 05:15:34;;;;;;;10.30;3.72;;;16.70;99.90;;;;;;5063110;28;20079;-73
2023/08/13 05:17:59;;;;;;;8.52;3.17;;;16.80;99.90;;;;;;5077869;28;20055;-73
2023/08/13 05:20:25;;;;;;;8.45;2.60;;;16.90;99.90;;;;;;5078979;28;20041;-74
2023/08/13 05:22:51;;;;;;;10.55;2.85;;;17.00;99.90;;;;;;5079754;28;20048;-73
2023/08/13 05:25:17;;;;;;;10.00;3.65;;;16.90;99.90;;;;;;5079502;28;20093;-73
2023/08/13 05:27:43;;;;;;;10.95;3.30;;;16.90;99.90;;;;;;5079227;28;20533;-73
2023/08/13 05:30:09;;;;;;;10.93;3.70;;;16.90;99.90;;;;;;5077575;28;20056;-73
2023/08/13 05:32:35;;;;;;;9.15;2.72;;;16.90;99.90;;;;;;5080942;28;20093;-73
2023/08/13 05:35:01;;;;;;;19.10;3.70;;;17.00;99.90;;;;;;5078898;28;20041;-73
2023/08/13 05:37:27;;;;;;;8.80;3.25;;;17.30;99.90;;;;;;5080052;28;20098;-73
2023/08/13 05:39:52;;;;;;;9.10;2.78;;;17.40;99.90;;;;;;5077819;28;20051;-73
2023/08/13 05:42:19;;;;;;;11.57;3.75;;;17.20;99.90;;;;;;5079327;28;20079;-73
2023/08/13 05:44:45;;;;;;;8.80;2.78;;;17.40;99.90;;;;;;5080231;28;20131;-73
2023/08/13 05:47:11;;;;;;;8.27;3.15;;;17.50;99.90;;;;;;5077585;28;20056;-73
2023/08/13 05:49:37;;;;;;;12.48;2.97;;;17.60;99.90;;;;;;5080656;28;20037;-73
2023/08/13 05:52:02;;;;;;;11.38;3.00;;;17.70;99.90;;;;;;5076910;28;20061;-73
2023/08/13 05:54:28;;;;;;;9.00;2.90;;;17.80;99.90;;;;;;5080159;28;20060;-74
2023/08/13 05:56:54;;;;;;;11.52;3.70;;;18.00;99.90;;;;;;5077713;28;20059;-74
2023/08/13 05:59:20;;;;;;;7.80;2.50;;;18.10;99.90;;;;;;5077734;28;20135;-74
2023/08/13 06:01:46;;;;;;;12.20;3.72;;;18.20;99.90;;;;;;5079477;28;20041;-73
2023/08/13 06:04:12;;;;;;;14.43;3.40;;;18.20;99.90;;;;;;5078694;28;20047;-74
2023/08/13 06:06:38;;;;;;;16.10;3.25;;;18.30;99.90;;;;;;5079619;28;20052;-74
2023/08/13 06:09:05;;;;;;;10.43;3.38;;;18.30;99.90;;;;;;5077866;28;20068;-74
2023/08/13 06:11:31;;;;;;;6.60;2.80;;;18.30;99.90;;;;;;5078511;28;20040;-74
2023/08/13 06:13:57;;;;;;;11.38;3.15;;;18.20;99.90;;;;;;5078345;28;20500;-73
2023/08/13 06:16:22;;;;;;;10.32;3.15;;;18.20;99.90;;;;;;5078905;28;20236;-74
2023/08/13 06:18:48;;;;;;;11.20;3.78;;;18.30;99.90;;;;;;5078751;28;20565;-73
2023/08/13 06:21:14;;;;;;;7.88;2.78;;;18.40;99.90;;;;;;5078071;28;20104;-75
2023/08/13 06:23:40;;;;;;;9.13;2.75;;;18.50;99.90;;;;;;5061386;28;20783;-73
2023/08/13 06:26:06;;;;;;;11.80;3.17;;;18.50;99.90;;;;;;5075587;28;20052;-73
2023/08/13 06:28:33;;;;;;;12.38;3.03;;;18.60;99.90;;;;;;5078176;28;20051;-73
2023/08/13 06:30:58;;;;;;;10.57;2.95;;;18.70;99.90;;;;;;5077842;28;20048;-73
2023/08/13 06:33:24;;;;;;;8.50;3.28;;;18.70;99.90;;;;;;5060656;28;20080;-75
2023/08/13 06:35:50;;;;;;;11.50;3.20;;;18.70;99.90;;;;;;5076667;28;20040;-75
2023/08/13 06:38:17;;;;;;;9.98;3.35;;;18.80;99.90;;;;;;5077755;28;20086;-74
2023/08/13 06:40:43;;;;;;;8.25;2.72;;;18.80;99.90;;;;;;5078877;28;20052;-73
2023/08/13 06:43:09;;;;;;;10.88;3.25;;;18.80;99.90;;;;;;5076932;28;20079;-74
2023/08/13 06:45:35;;;;;;;8.32;3.67;;;18.80;99.90;;;;;;5077741;28;20051;-73
2023/08/13 06:48:04;;;;;;;7.93;3.15;;;18.90;99.90;;;;;;5075710;28;20053;-73
2023/08/13 06:50:31;;;;;;;10.98;3.03;;;18.90;99.90;;;;;;5077772;28;20063;-73
2023/08/13 06:52:57;;;;;;;7.65;3.67;;;19.00;99.90;;;;;;5077175;28;20049;-73
2023/08/13 06:55:23;;;;;;;14.13;3.55;;;19.10;99.90;;;;;;5077294;28;20104;-73
2023/08/13 06:57:49;;;;;;;8.13;3.53;;;19.10;99.90;;;;;;5084431;28;20490;-73
2023/08/13 07:00:16;;;;;;;10.50;2.75;;;19.10;99.90;;;;;;5095541;28;20050;-73
2023/08/13 07:02:41;;;;;;;12.90;2.90;;;19.20;99.90;;;;;;5098945;28;20051;-73
2023/08/13 07:05:11;;;;;;;10.60;3.03;;;19.20;99.90;;;;;;5096819;28;20047;-72
2023/08/13 07:07:36;;;;;;;10.02;2.85;;;19.20;99.90;;;;;;5096706;28;20039;-73
2023/08/13 07:10:04;;;;;;;14.52;3.88;;;19.20;99.90;;;;;;5096327;28;20083;-73
2023/08/13 07:12:30;;;;;;;11.85;4.03;;;19.30;99.90;;;;;;5097037;28;20032;-72
2023/08/13 07:14:56;;;;;;;12.23;3.13;;;19.30;99.90;;;;;;5080145;28;20074;-74
2023/08/13 07:17:22;;;;;;;11.30;3.10;;;19.40;99.90;;;;;;5078278;28;20056;-73
2023/08/13 07:19:49;;;;;;;9.90;3.00;;;19.40;99.90;;;;;;5059777;28;20044;-73
2023/08/13 07:22:16;;;;;;;13.88;3.58;;;19.30;99.90;;;;;;5076443;28;20040;-74
2023/08/13 07:24:43;;;;;;;9.13;2.78;;;19.40;99.90;;;;;;5077361;28;20106;-73
2023/08/13 07:27:11;;;;;;;11.45;3.35;;;19.50;99.90;;;;;;5075110;28;20049;-73
2023/08/13 07:29:36;;;;;;;8.00;2.80;;;19.50;99.90;;;;;;5075555;28;20067;-72
2023/08/13 07:32:04;;;;;;;10.77;3.63;;;19.50;99.90;;;;;;5076488;28;20044;-72
2023/08/13 07:34:30;;;;;;;17.13;4.78;;;19.40;99.90;;;;;;5075912;28;20048;-73
2023/08/13 07:36:55;;;;;;;10.48;3.28;;;19.50;99.90;;;;;;5076779;28;20044;-69
2023/08/13 07:39:22;;;;;;;7.65;2.50;;;19.50;99.90;;;;;;5074863;28;20041;-72
2023/08/13 07:41:49;;;;;;;9.55;2.67;;;19.50;99.90;;;;;;5075905;28;20063;-73
2023/08/13 07:44:18;;;;;;;12.20;2.80;;;19.50;99.90;;;;;;5076935;28;20135;-72
2023/08/13 07:46:43;;;;;;;13.05;3.10;;;19.50;99.90;;;;;;5076776;28;20073;-73
2023/08/13 07:49:09;;;;;;;8.65;2.40;;;19.60;99.90;;;;;;5077495;28;20517;-73
2023/08/13 07:51:35;;;;;;;10.20;2.70;;;19.60;99.90;;;;;;5075904;28;20088;-73
2023/08/13 07:54:00;;;;;;;8.95;2.38;;;19.60;99.90;;;;;;5076634;28;20071;-72
2023/08/13 07:56:26;;;;;;;7.85;2.90;;;19.70;99.90;;;;;;5076124;28;20044;-71
2023/08/13 07:58:52;;;;;;;16.00;2.97;;;19.70;99.90;;;;;;5059211;28;20044;-72
2023/08/13 08:01:18;;;;;;;5.63;3.00;;;19.90;99.90;;;;;;5058907;28;20127;-72
2023/08/13 08:03:44;;;;;;;11.73;2.50;;;19.90;99.90;;;;;;5076413;28;20036;-73
2023/08/13 08:06:12;;;;;;;9.75;3.13;;;20.00;99.90;;;;;;5077213;28;20044;-73
2023/08/13 08:08:38;;;;;;;13.35;3.15;;;20.00;99.90;;;;;;5075937;28;20905;-73
2023/08/13 08:11:04;;;;;;;11.73;3.15;;;20.00;99.90;;;;;;5077975;28;20059;-72
2023/08/13 08:13:32;;;;;;;9.88;2.95;;;20.10;99.90;;;;;;5076076;28;20045;-73
2023/08/13 08:15:58;;;;;;;9.20;2.70;;;20.10;99.90;;;;;;5077636;28;20040;-73
2023/08/13 08:18:24;;;;;;;12.15;2.75;;;20.20;99.90;;;;;;5075110;28;20051;-72
2023/08/13 08:20:49;;;;;;;9.73;2.67;;;20.20;99.90;;;;;;5076663;28;20040;-74
2023/08/13 08:23:18;;;;;;;8.63;2.67;;;20.30;99.90;;;;;;5077200;28;20407;-74
2023/08/13 08:25:44;;;;;;;8.25;2.72;;;20.30;99.90;;;;;;5074344;28;20089;-73
2023/08/13 08:28:11;;;;;;;9.10;2.70;;;20.50;99.90;;;;;;5077632;28;20062;-72
2023/08/13 08:30:37;;;;;;;7.13;2.03;;;20.60;99.90;;;;;;5057568;28;20048;-72
2023/08/13 08:33:02;;;;;;;6.63;2.28;;;20.60;99.90;;;;;;5075846;28;20052;-72
2023/08/13 08:35:28;;;;;;;13.77;2.45;;;20.70;99.90;;;;;;5058220;28;20589;-72
2023/08/13 08:37:54;;;;;;;8.63;2.38;;;20.70;99.90;;;;;;5074723;28;20060;-73
2023/08/13 08:40:20;;;;;;;11.38;2.22;;;20.80;99.90;;;;;;5075945;28;20052;-73
2023/08/13 08:42:46;;;;;;;12.85;2.85;;;20.90;99.90;;;;;;5086257;28;20044;-73
2023/08/13 08:45:16;;;;;;;11.45;2.78;;;20.90;99.90;;;;;;5096363;28;20059;-72
2023/08/13 08:47:43;;;;;;;10.70;2.33;;;20.90;99.90;;;;;;5067851;28;20044;-73
2023/08/13 08:50:13;;;;;;;6.90;2.10;;;21.10;99.90;;;;;;5076654;28;20040;-73
2023/08/13 08:52:39;;;;;;;9.20;2.38;;;21.10;99.90;;;;;;5085156;28;20060;-72
2023/08/13 08:55:06;;;;;;;6.90;2.40;;;21.10;99.90;;;;;;5096333;28;20411;-73
2023/08/13 08:57:32;;;;;;;8.70;1.67;;;21.10;99.90;;;;;;5096597;28;20055;-73
2023/08/13 08:59:59;;;;;;;9.27;1.98;;;21.20;99.90;;;;;;5094384;28;20420;-73
2023/08/13 09:02:25;;;;;;;8.57;2.15;;;21.20;99.90;;;;;;5097328;28;20055;-73
2023/08/13 09:04:51;;;;;;;7.95;1.95;;;21.30;99.90;;;;;;5094019;28;20289;-72
2023/08/13 09:07:17;;;;;;;7.32;2.03;;;21.30;99.90;;;;;;5097295;28;20044;-73
2023/08/13 09:09:46;;;;;;;12.23;2.15;;;21.30;99.90;;;;;;5077696;28;20101;-72
2023/08/13 09:12:12;;;;;;;5.70;1.85;;;21.30;99.90;;;;;;5075804;28;20108;-72
2023/08/13 09:14:38;;;;;;;10.32;1.92;;;21.40;99.90;;;;;;5079898;28;20058;-72
2023/08/13 09:17:04;;;;;;;6.68;2.10;;;21.40;99.90;;;;;;5079476;28;20092;-73
2023/08/13 09:19:32;;;;;;;4.45;1.70;;;21.40;99.90;;;;;;5099717;28;20055;-72
2023/08/13 09:22:01;;;;;;;4.50;1.70;;;21.40;99.90;;;;;;5097308;28;20831;-72
2023/08/13 09:24:37;;;;;;;8.18;1.88;;;21.40;99.90;;;;;;5099319;28;20070;-73
2023/08/13 09:27:05;;;;;;;7.30;1.90;;;21.50;99.90;;;;;;5077123;28;20087;-73
2023/08/13 09:29:31;;;;;;;7.57;2.28;;;21.40;99.90;;;;;;5071855;28;20044;-71
2023/08/13 09:31:58;;;;;;;10.50;2.25;;;21.50;99.90;;;;;;5079347;28;20198;-71
2023/08/13 09:34:28;;;;;;;7.60;1.40;;;21.50;99.90;;;;;;5080107;28;20052;-73
2023/08/13 09:36:54;;;;;;;8.55;1.60;;;21.60;99.90;;;;;;5079471;28;20048;-74
2023/08/13 09:39:22;;;;;;;7.22;1.88;;;21.60;99.90;;;;;;5062422;28;20083;-73
2023/08/13 09:41:50;;;;;;;4.93;1.77;;;21.70;99.90;;;;;;5078391;28;20049;-73
2023/08/13 09:44:19;;;;;;;7.13;1.80;;;21.70;99.90;;;;;;5078944;28;20056;-72
2023/08/13 09:46:58;;;;;;;3.72;1.50;;;21.70;99.90;;;;;;5077127;28;20054;-73
2023/08/13 09:49:28;;;;;;;2.10;1.20;;;21.70;99.90;;;;;;5078921;28;20051;-73
2023/08/13 09:51:56;;;;;;;4.38;1.48;;;21.80;99.90;;;;;;5073883;28;20167;-74
2023/08/13 09:54:44;;;;;;;8.48;1.90;;;21.70;99.90;;;;;;5074337;28;20048;-72
2023/08/13 09:57:14;;;;;;;8.60;1.50;;;21.80;99.90;;;;;;5077077;28;20041;-73
2023/08/13 09:59:40;;;;;;;8.18;1.50;;;21.70;99.90;;;;;;5077986;28;20052;-73
2023/08/13 10:02:07;;;;;;;6.05;1.63;;;21.70;99.90;;;;;;5079724;28;20041;-73
2023/08/13 10:04:38;;;;;;;6.03;1.05;;;21.80;99.90;;;;;;5059184;28;20133;-73
2023/08/13 10:07:05;;;;;;;2.85;1.20;;;21.90;99.90;;;;;;5079306;28;20051;-74
2023/08/13 10:09:33;;;;;;;3.88;1.27;;;22.00;99.90;;;;;;5077382;28;20108;-74
2023/08/13 10:12:00;;;;;;;5.45;1.30;;;22.00;99.90;;;;;;5078272;28;20037;-73
2023/08/13 10:14:27;;;;;;;2.17;0.90;;;22.10;99.90;;;;;;5074202;28;20037;-74
2023/08/13 10:16:53;;;;;;;5.53;1.27;;;22.10;99.90;;;;;;5077342;28;20047;-70
2023/08/13 10:19:19;;;;;;;6.82;1.08;;;22.10;99.90;;;;;;5078986;28;20044;-73
2023/08/13 10:21:55;;;;;;;4.78;1.20;;;22.20;99.90;;;;;;5077046;28;20062;-73
2023/08/13 10:24:22;;;;;;;5.75;1.10;;;22.20;99.90;;;;;;5076543;28;20086;-75
2023/08/13 10:26:48;;;;;;;3.90;1.10;;;22.20;99.90;;;;;;5076539;28;20056;-77
2023/08/13 10:29:19;;;;;;;4.80;1.17;;;22.10;99.90;;;;;;5077414;28;20063;-78
2023/08/13 10:32:14;;;;;;;6.60;1.60;;;22.20;99.90;;;;;;5077551;28;20040;-73
2023/08/13 10:34:50;;;;;;;8.25;1.10;;;22.20;99.90;;;;;;5074309;28;20056;-70
2023/08/13 10:37:17;;;;;;;4.97;1.02;;;22.20;99.90;;;;;;5079366;28;20052;-70
2023/08/13 10:39:45;;;;;;;7.32;1.25;;;22.20;99.90;;;;;;5078202;28;20052;-70
2023/08/13 10:42:36;;;;;;;3.80;1.00;;;22.30;99.90;;;;;;5078657;28;20046;-78
2023/08/13 10:45:02;;;;;;;3.58;1.05;;;22.20;99.90;;;;;;5078967;28;20074;-78
2023/08/13 10:47:47;;;;;;;2.97;0.90;;;22.30;99.90;;;;;;5076978;28;20048;-75
2023/08/13 10:50:32;;;;;;;6.80;1.35;;;22.30;99.90;;;;;;5076737;28;20052;-78
2023/08/13 10:53:09;;;;;;;4.05;1.10;;;22.20;99.90;;;;;;5080970;28;20117;-78
2023/08/13 10:55:38;;;;;;;2.58;0.98;;;22.20;99.90;;;;;;5097573;28;20040;-77
2023/08/13 10:58:05;;;;;;;4.57;1.05;;;22.30;99.90;;;;;;5099203;28;20120;-77
2023/08/13 11:00:39;;;;;;;2.15;1.13;;;22.30;99.90;;;;;;5080055;28;20036;-76
2023/08/13 11:03:20;;;;;;;8.15;1.50;;;22.40;99.90;;;;;;5071012;28;20041;-77
2023/08/13 11:05:47;;;;;;;2.42;0.90;;;22.40;99.90;;;;;;5071743;28;20040;-77
2023/08/13 11:08:31;;;;;;;4.25;1.00;;;22.40;99.90;;;;;;5077062;28;20496;-78
2023/08/13 11:10:57;;;;;;;5.93;1.17;;;22.30;99.90;;;;;;5078684;28;20104;-80
2023/08/13 11:13:23;;;;;;;4.68;1.15;;;22.40;99.90;;;;;;5076666;28;20102;-77
2023/08/13 11:15:51;;;;;;;3.20;0.90;;;22.30;99.90;;;;;;5078038;28;20036;-78
2023/08/13 11:18:17;;;;;;;4.05;1.10;;;22.30;99.90;;;;;;5075773;28;20100;-79
2023/08/13 11:20:44;;;;;;;2.25;1.00;;;22.30;99.90;;;;;;5077327;28;20135;-78
2023/08/13 11:23:12;;;;;;;2.15;0.85;;;22.30;99.90;;;;;;5076467;28;20126;-77
2023/08/13 11:25:39;;;;;;;3.08;1.20;;;22.30;99.90;;;;;;5076035;28;20762;-69
2023/08/13 11:28:05;;;;;;;6.97;1.15;;;22.20;99.90;;;;;;5078398;28;20044;-74
2023/08/13 11:30:30;;;;;;;2.88;1.02;;;22.20;99.90;;;;;;5075181;28;20076;-81
2023/08/13 11:32:57;;;;;;;5.93;0.98;;;22.10;99.90;;;;;;5077923;28;20032;-75
2023/08/13 11:35:23;;;;;;;3.75;1.10;;;22.10;99.90;;;;;;5075886;28;20471;-75
2023/08/13 11:37:49;;;;;;;3.45;1.20;;;22.20;99.90;;;;;;5076934;28;20052;-75
2023/08/13 11:40:16;;;;;;;3.92;1.25;;;22.20;99.90;;;;;;5075093;28;20040;-68
2023/08/13 11:43:12;;;;;;;5.35;1.02;;;22.30;99.90;;;;;;5062709;28;20080;-68
2023/08/13 11:45:39;;;;;;;3.90;1.10;;;22.30;99.90;;;;;;5066341;28;20507;-74
2023/08/13 11:48:18;;;;;;;6.25;1.30;;;22.30;99.90;;;;;;5058937;28;20128;-72
2023/08/13 11:50:50;;;;;;;6.70;1.38;;;22.30;99.90;;;;;;5076676;28;20068;-73
2023/08/13 11:53:18;;;;;;;6.72;1.52;;;22.30;99.90;;;;;;5059518;28;20059;-71
2023/08/13 11:55:47;;;;;;;9.02;1.35;;;22.30;99.90;;;;;;5075555;28;20062;-72
2023/08/13 11:58:17;;;;;;;8.30;1.67;;;22.40;99.90;;;;;;5076459;28;20801;-72
2023/08/13 12:00:44;;;;;;;5.53;1.52;;;22.40;99.90;;;;;;5076265;28;20055;-71
2023/08/13 12:03:12;;;;;;;7.53;1.85;;;22.50;99.90;;;;;;5077355;28;20082;-72
2023/08/13 12:05:41;;;;;;;5.45;1.30;;;22.40;99.90;;;;;;5059132;28;20053;-73
2023/08/13 12:08:09;;;;;;;3.85;1.33;;;22.40;99.90;;;;;;5075002;28;20042;-72
2023/08/13 12:10:36;;;;;;;9.85;1.80;;;22.40;99.90;;;;;;5076045;28;20048;-72
2023/08/13 12:13:02;;;;;;;5.85;1.73;;;22.30;99.90;;;;;;5075743;28;20074;-73
2023/08/13 12:15:29;;;;;;;5.07;1.45;;;22.20;99.90;;;;;;5059669;28;20056;-72
2023/08/13 12:17:59;;;;;;;10.93;1.52;;;22.20;99.90;;;;;;5076259;28;20048;-73
2023/08/13 12:20:27;;;;;;;3.83;1.38;;;22.20;99.90;;;;;;5077104;28;20045;-72
2023/08/13 12:22:54;;;;;;;8.25;2.40;;;22.10;99.90;;;;;;5076843;28;20066;-71
2023/08/13 12:25:19;;;;;;;5.97;1.73;;;22.10;99.90;;;;;;5075826;28;20080;-73
2023/08/13 12:27:51;;;;;;;5.90;2.35;;;22.10;99.90;;;;;;5076519;28;20075;-72
2023/08/13 12:30:17;;;;;;;4.72;1.63;;;22.10;99.90;;;;;;5074621;28;20100;-72
2023/08/13 12:32:43;;;;;;;7.38;2.25;;;22.10;99.90;;;;;;5077857;28;20056;-72
2023/08/13 12:35:09;;;;;;;11.10;1.85;;;22.10;99.90;;;;;;5076462;28;20152;-72
2023/08/13 12:37:35;;;;;;;13.75;2.38;;;22.10;99.90;;;;;;5058652;28;20457;-72
2023/08/13 12:40:01;;;;;;;7.40;1.73;;;22.10;99.90;;;;;;5076614;28;20044;-73
2023/08/13 12:42:26;;;;;;;8.65;1.80;;;22.10;99.90;;;;;;5058118;28;20045;-72
2023/08/13 12:44:53;;;;;;;9.52;1.90;;;22.10;99.90;;;;;;5076076;28;20044;-71